Terminal Aerodrome Forecast
Issued by NWS

Home | Current Version | Previous Version | Text Only | Print | Product List | Glossary On
Versions: 1 2 3 4 5 6 7 8 9 10 11 12
000
FTUS42 KTAE 191100
TAFABY
TAF
KABY 191124Z 1912/2012 36003KT P6SM BKN035
     FM191500 01004KT P6SM BKN030 OVC100
     FM191800 32005KT 5SM -RA OVC040
     FM200200 08003KT P6SM VCSH SCT050 OVC120=

USA.gov is the U.S. government's official web portal to all federal, state and local government web resources and services.